createdAt,value
2019-03-13T00:00:41.273Z,9.18
2019-03-13T00:01:41.534Z,9.22
2019-03-13T00:02:41.818Z,9.16
2019-03-13T00:03:41.313Z,9.21
2019-03-13T00:04:41.328Z,9.22
2019-03-13T00:05:41.609Z,9.13
2019-03-13T00:06:41.629Z,9.21
2019-03-13T00:07:41.653Z,9.22
2019-03-13T00:08:41.667Z,9.22
2019-03-13T00:09:41.694Z,9.11
2019-03-13T00:10:41.702Z,9.1
2019-03-13T00:11:41.991Z,9.1
2019-03-13T00:12:41.475Z,9.11
2019-03-13T00:13:41.501Z,9.06
2019-03-13T00:14:41.509Z,9.11
2019-03-13T00:15:41.636Z,9.04
2019-03-13T00:16:41.545Z,9.1
2019-03-13T00:17:41.576Z,9.1
2019-03-13T00:18:41.847Z,9
2019-03-13T00:19:41.864Z,9.08
2019-03-13T00:20:41.880Z,9.06
2019-03-13T00:21:41.909Z,9.08
2019-03-13T00:22:41.660Z,9.1
2019-03-13T00:23:41.940Z,9.08
2019-03-13T00:24:41.950Z,9.1
2019-03-13T00:25:42.235Z,9.04
2019-03-13T00:26:41.724Z,9.11
2019-03-13T00:27:42.005Z,9.08
2019-03-13T00:28:42.027Z,9.02
2019-03-13T00:29:41.792Z,9.04
2019-03-13T00:30:42.076Z,9
2019-03-13T00:31:41.816Z,9.04
2019-03-13T00:32:42.363Z,9.04
2019-03-13T00:33:42.116Z,9.03
2019-03-13T00:34:41.872Z,9.03
2019-03-13T00:35:42.154Z,9.04
2019-03-13T00:36:42.165Z,9.04
2019-03-13T00:37:41.927Z,9.08
2019-03-13T00:38:42.205Z,9.03
2019-03-13T00:39:42.269Z,8.95
2019-03-13T00:40:42.243Z,8.97
2019-03-13T00:41:42.261Z,8.97
2019-03-13T00:42:42.277Z,9.02
2019-03-13T00:43:42.292Z,9
2019-03-13T00:44:42.064Z,9
2019-03-13T00:45:42.331Z,8.95
2019-03-13T00:46:42.611Z,9.02
2019-03-13T00:47:42.113Z,8.95
2019-03-13T00:48:42.132Z,9.04
2019-03-13T00:49:42.203Z,8.99
2019-03-13T00:50:42.690Z,8.95
2019-03-13T00:51:42.207Z,8.97
2019-03-13T00:52:42.217Z,8.95
2019-03-13T00:53:42.734Z,8.99
2019-03-13T00:54:42.502Z,8.95
2019-03-13T00:55:42.555Z,8.94
2019-03-13T00:56:42.527Z,8.95
2019-03-13T00:57:42.547Z,9.02
2019-03-13T00:58:42.569Z,8.99
2019-03-13T00:59:42.931Z,8.87
2019-03-13T01:00:42.604Z,8.92
2019-03-13T01:01:42.383Z,8.89
2019-03-13T01:02:42.640Z,8.92
2019-03-13T01:03:42.654Z,8.94
2019-03-13T01:04:42.678Z,8.88
2019-03-13T01:05:42.691Z,8.91
2019-03-13T01:06:42.970Z,8.94
2019-03-13T01:07:42.801Z,8.92
2019-03-13T01:08:43.013Z,8.91
2019-03-13T01:09:42.765Z,8.91
2019-03-13T01:10:42.783Z,8.88
2019-03-13T01:11:42.803Z,8.88
2019-03-13T01:12:42.815Z,8.89
2019-03-13T01:13:42.833Z,8.92
2019-03-13T01:14:42.852Z,8.88
2019-03-13T01:15:42.867Z,8.84
2019-03-13T01:16:42.891Z,8.87
2019-03-13T01:17:44.109Z,8.78
2019-03-13T01:18:42.951Z,8.76
2019-03-13T01:19:42.683Z,8.74
2019-03-13T01:20:42.958Z,8.79
2019-03-13T01:21:42.978Z,8.74
2019-03-13T01:22:42.733Z,8.82
2019-03-13T01:23:43.014Z,8.84
2019-03-13T01:24:43.029Z,8.85
2019-03-13T01:25:43.046Z,8.81
2019-03-13T01:26:43.074Z,8.84
2019-03-13T01:27:43.357Z,8.81
2019-03-13T01:28:43.364Z,8.82
2019-03-13T01:29:43.118Z,8.74
2019-03-13T01:30:43.137Z,8.82
2019-03-13T01:31:43.514Z,8.81
2019-03-13T01:32:43.177Z,8.73
2019-03-13T01:33:43.465Z,8.84
2019-03-13T01:34:43.208Z,8.78
2019-03-13T01:35:43.321Z,8.73
2019-03-13T01:36:43.505Z,8.71
2019-03-13T01:37:43.327Z,8.81
2019-03-13T01:38:43.278Z,8.74
2019-03-13T01:39:43.302Z,8.73
2019-03-13T01:40:43.616Z,8.73
2019-03-13T01:41:43.066Z,8.73
2019-03-13T01:42:43.352Z,8.71
2019-03-13T01:43:43.370Z,8.78
2019-03-13T01:44:45.493Z,8.76
2019-03-13T01:45:43.139Z,8.74
2019-03-13T01:46:43.430Z,8.74
2019-03-13T01:47:43.198Z,8.79
2019-03-13T01:48:43.740Z,8.7
2019-03-13T01:49:43.472Z,8.76
2019-03-13T01:50:43.491Z,8.74
2019-03-13T01:51:43.247Z,8.76
2019-03-13T01:52:43.626Z,8.73
2019-03-13T01:53:43.334Z,8.71
2019-03-13T01:54:43.827Z,8.73
2019-03-13T01:55:43.327Z,8.7
2019-03-13T01:56:43.336Z,8.7
2019-03-13T01:57:43.618Z,8.74
2019-03-13T01:58:43.634Z,8.73
2019-03-13T01:59:43.653Z,8.73
2019-03-13T02:00:43.676Z,8.71
2019-03-13T02:01:43.450Z,8.71
2019-03-13T02:02:43.722Z,8.71
2019-03-13T02:03:43.724Z,8.74
2019-03-13T02:04:43.751Z,8.78
2019-03-13T02:05:44.022Z,8.67
2019-03-13T02:06:43.771Z,8.63
2019-03-13T02:07:44.065Z,8.7
2019-03-13T02:08:43.811Z,8.67
2019-03-13T02:09:43.837Z,8.69
2019-03-13T02:10:44.108Z,8.71
2019-03-13T02:11:43.868Z,8.69
2019-03-13T02:12:43.890Z,8.67
2019-03-13T02:13:43.941Z,8.69
2019-03-13T02:14:44.185Z,8.73
2019-03-13T02:15:43.678Z,8.69
2019-03-13T02:16:43.961Z,8.67
2019-03-13T02:17:44.237Z,8.71
2019-03-13T02:18:43.725Z,8.69
2019-03-13T02:19:44.013Z,8.66
2019-03-13T02:20:44.027Z,8.67
2019-03-13T02:21:44.040Z,8.66
2019-03-13T02:22:44.061Z,8.64
2019-03-13T02:23:43.823Z,8.67
2019-03-13T02:24:44.095Z,8.67
2019-03-13T02:25:43.848Z,8.66
2019-03-13T02:26:43.866Z,8.69
2019-03-13T02:27:44.147Z,8.64
2019-03-13T02:28:44.167Z,8.6
2019-03-13T02:29:44.186Z,8.67
2019-03-13T02:30:44.202Z,8.63
2019-03-13T02:31:44.215Z,8.63
2019-03-13T02:32:44.749Z,8.64
2019-03-13T02:33:44.527Z,8.61
2019-03-13T02:34:44.307Z,8.63
2019-03-13T02:35:44.303Z,8.67
2019-03-13T02:36:44.047Z,8.64
2019-03-13T02:37:44.064Z,8.6
2019-03-13T02:38:44.356Z,8.6
2019-03-13T02:39:44.360Z,8.69
2019-03-13T02:40:44.133Z,8.7
2019-03-13T02:41:44.397Z,8.61
2019-03-13T02:42:44.481Z,8.58
2019-03-13T02:43:44.434Z,8.56
2019-03-13T02:44:44.465Z,8.69
2019-03-13T02:45:44.204Z,8.61
2019-03-13T02:46:44.491Z,8.6
2019-03-13T02:47:44.792Z,8.56
2019-03-13T02:48:44.523Z,8.58
2019-03-13T02:49:44.546Z,8.61
2019-03-13T02:50:44.559Z,8.63
2019-03-13T02:51:44.570Z,8.56
2019-03-13T02:52:44.587Z,8.64
2019-03-13T02:53:44.870Z,8.63
2019-03-13T02:54:44.889Z,8.61
2019-03-13T02:55:44.390Z,8.6
2019-03-13T02:56:44.930Z,8.66
2019-03-13T02:57:44.677Z,8.64
2019-03-13T02:58:44.733Z,8.61
2019-03-13T02:59:44.981Z,8.58
2019-03-13T03:00:44.737Z,8.55
2019-03-13T03:01:44.752Z,8.61
2019-03-13T03:02:44.779Z,8.61
2019-03-13T03:03:44.522Z,8.63
2019-03-13T03:04:44.805Z,8.61
2019-03-13T03:05:44.560Z,8.61
2019-03-13T03:06:44.842Z,8.55
2019-03-13T03:07:44.589Z,8.53
2019-03-13T03:08:44.718Z,8.53
2019-03-13T03:09:44.632Z,8.53
2019-03-13T03:10:44.913Z,8.7
2019-03-13T03:11:45.188Z,8.61
2019-03-13T03:12:44.956Z,8.67
2019-03-13T03:13:44.971Z,8.56
2019-03-13T03:14:45.240Z,8.53
2019-03-13T03:15:44.738Z,8.56
2019-03-13T03:16:45.078Z,8.55
2019-03-13T03:17:45.076Z,8.63
2019-03-13T03:18:45.312Z,8.61
2019-03-13T03:19:45.346Z,8.6
2019-03-13T03:20:44.821Z,8.55
2019-03-13T03:21:45.120Z,8.53
2019-03-13T03:22:45.382Z,8.51
2019-03-13T03:23:49.523Z,8.51
2019-03-13T03:24:45.173Z,8.56
2019-03-13T03:25:45.247Z,8.64
2019-03-13T03:26:44.955Z,8.52
2019-03-13T03:27:45.353Z,8.48
2019-03-13T03:28:45.361Z,8.49
2019-03-13T03:29:45.519Z,8.6
2019-03-13T03:30:45.092Z,8.55
2019-03-13T03:31:45.446Z,8.58
2019-03-13T03:32:45.395Z,8.53
2019-03-13T03:33:45.377Z,8.64
2019-03-13T03:34:45.611Z,8.52
2019-03-13T03:35:45.090Z,8.61
2019-03-13T03:36:45.644Z,8.52
2019-03-13T03:37:45.676Z,8.58
2019-03-13T03:38:45.165Z,8.56
2019-03-13T03:39:45.425Z,8.56
2019-03-13T03:40:45.462Z,8.63
2019-03-13T03:41:45.468Z,8.51
2019-03-13T03:42:45.212Z,8.52
2019-03-13T03:43:46.165Z,8.61
2019-03-13T03:44:45.505Z,8.61
2019-03-13T03:45:45.530Z,8.6
2019-03-13T03:46:45.830Z,8.6
2019-03-13T03:47:45.563Z,8.61
2019-03-13T03:48:45.322Z,8.61
2019-03-13T03:49:45.870Z,8.6
2019-03-13T03:50:45.877Z,8.48
2019-03-13T03:51:45.632Z,8.55
2019-03-13T03:52:46.082Z,8.56
2019-03-13T03:53:45.399Z,8.49
2019-03-13T03:54:45.737Z,8.6
2019-03-13T03:55:45.713Z,8.58
2019-03-13T03:56:45.600Z,8.56
2019-03-13T03:57:46.019Z,8.42
2019-03-13T03:58:46.025Z,8.64
2019-03-13T03:59:45.509Z,8.55
2019-03-13T04:00:45.816Z,8.58
2019-03-13T04:01:46.089Z,8.58
2019-03-13T04:02:45.566Z,8.53
2019-03-13T04:03:46.104Z,8.6
2019-03-13T04:04:45.597Z,8.45
2019-03-13T04:05:45.613Z,8.48
2019-03-13T04:06:46.162Z,8.61
2019-03-13T04:07:45.918Z,8.48
2019-03-13T04:08:45.675Z,8.46
2019-03-13T04:09:45.688Z,8.48
2019-03-13T04:10:45.965Z,8.61
2019-03-13T04:11:46.250Z,8.48
2019-03-13T04:12:46.320Z,8.46
2019-03-13T04:13:49.701Z,8.44
2019-03-13T04:14:46.042Z,8.48
2019-03-13T04:15:46.054Z,8.44
2019-03-13T04:16:45.819Z,8.44
2019-03-13T04:17:46.384Z,8.51
2019-03-13T04:18:45.846Z,8.52
2019-03-13T04:19:45.935Z,8.48
2019-03-13T04:20:46.427Z,8.49
2019-03-13T04:21:45.899Z,8.46
2019-03-13T04:22:46.200Z,8.52
2019-03-13T04:23:46.468Z,8.42
2019-03-13T04:24:46.249Z,8.49
2019-03-13T04:25:46.497Z,8.42
2019-03-13T04:26:46.243Z,8.45
2019-03-13T04:27:46.294Z,8.44
2019-03-13T04:28:46.350Z,8.45
2019-03-13T04:29:46.477Z,8.46
2019-03-13T04:30:46.327Z,8.52
2019-03-13T04:31:46.073Z,8.42
2019-03-13T04:32:46.625Z,8.46
2019-03-13T04:33:46.375Z,8.42
2019-03-13T04:34:46.390Z,8.51
2019-03-13T04:35:46.666Z,8.48
2019-03-13T04:36:46.163Z,8.53
2019-03-13T04:37:46.717Z,8.42
2019-03-13T04:38:46.474Z,8.36
2019-03-13T04:39:46.474Z,8.44
2019-03-13T04:40:46.496Z,8.53
2019-03-13T04:41:46.508Z,8.44
2019-03-13T04:42:46.535Z,8.49
2019-03-13T04:43:46.291Z,8.41
2019-03-13T04:44:46.297Z,8.45
2019-03-13T04:45:46.585Z,8.52
2019-03-13T04:46:46.859Z,8.51
2019-03-13T04:47:46.626Z,8.51
2019-03-13T04:48:46.373Z,8.46
2019-03-13T04:49:46.932Z,8.51
2019-03-13T04:50:46.663Z,8.49
2019-03-13T04:51:46.427Z,8.48
2019-03-13T04:52:46.963Z,8.46
2019-03-13T04:53:46.718Z,8.45
2019-03-13T04:54:46.736Z,8.49
2019-03-13T04:55:46.493Z,8.36
2019-03-13T04:56:46.508Z,8.55
2019-03-13T04:57:46.858Z,8.49
2019-03-13T04:58:47.066Z,8.52
2019-03-13T04:59:46.914Z,8.46
2019-03-13T05:00:46.579Z,8.36
2019-03-13T05:01:47.120Z,8.51
2019-03-13T05:02:46.898Z,8.48
2019-03-13T05:03:46.907Z,8.51
2019-03-13T05:04:46.910Z,8.49
2019-03-13T05:05:46.665Z,8.38
2019-03-13T05:06:47.001Z,8.51
2019-03-13T05:07:46.968Z,8.48
2019-03-13T05:08:50.504Z,8.49
2019-03-13T05:09:47.268Z,8.44
2019-03-13T05:10:46.756Z,8.48
2019-03-13T05:11:46.770Z,8.51
2019-03-13T05:12:47.063Z,8.49
2019-03-13T05:13:47.073Z,8.38
2019-03-13T05:14:46.826Z,8.51
2019-03-13T05:15:46.863Z,8.38
2019-03-13T05:16:47.388Z,8.49
2019-03-13T05:17:46.876Z,8.45
2019-03-13T05:18:47.426Z,8.53
2019-03-13T05:19:46.926Z,8.49
2019-03-13T05:20:46.936Z,8.48
2019-03-13T05:21:47.476Z,8.42
2019-03-13T05:22:46.970Z,8.48
2019-03-13T05:23:47.607Z,8.44
2019-03-13T05:24:47.013Z,8.55
2019-03-13T05:25:47.546Z,8.52
2019-03-13T05:26:47.307Z,8.51
2019-03-13T05:27:47.319Z,8.51
2019-03-13T05:28:47.075Z,8.49
2019-03-13T05:29:47.353Z,8.48
2019-03-13T05:30:47.112Z,8.44
2019-03-13T05:31:47.394Z,8.51
2019-03-13T05:32:47.412Z,8.46
2019-03-13T05:33:47.433Z,8.46
2019-03-13T05:34:47.182Z,8.52
2019-03-13T05:35:47.463Z,8.45
2019-03-13T05:36:47.215Z,8.52
2019-03-13T05:37:47.239Z,8.49
2019-03-13T05:38:47.779Z,8.53
2019-03-13T05:39:47.533Z,8.44
2019-03-13T05:40:47.812Z,8.42
2019-03-13T05:41:47.310Z,8.44
2019-03-13T05:42:47.318Z,8.52
2019-03-13T05:43:47.339Z,8.51
2019-03-13T05:44:47.615Z,8.48
2019-03-13T05:45:47.900Z,8.49
2019-03-13T05:46:47.654Z,8.46
2019-03-13T05:47:47.416Z,8.46
2019-03-13T05:48:47.688Z,8.48
2019-03-13T05:49:48.002Z,8.46
2019-03-13T05:50:47.726Z,8.52
2019-03-13T05:51:47.481Z,8.46
2019-03-13T05:52:47.501Z,8.52
2019-03-13T05:53:47.778Z,8.48
2019-03-13T05:54:47.800Z,8.51
2019-03-13T05:55:47.821Z,8.49
2019-03-13T05:56:47.835Z,8.48
2019-03-13T05:57:47.853Z,8.53
2019-03-13T05:58:47.915Z,8.52
2019-03-13T05:59:47.889Z,8.46
2019-03-13T06:00:47.644Z,8.45
2019-03-13T06:01:48.197Z,8.48
2019-03-13T06:02:50.413Z,8.48
2019-03-13T06:03:48.218Z,8.45
2019-03-13T06:04:47.974Z,8.51
2019-03-13T06:05:48.328Z,8.52
2019-03-13T06:06:48.008Z,8.46
2019-03-13T06:07:48.027Z,8.51
2019-03-13T06:08:47.784Z,8.44
2019-03-13T06:09:48.093Z,8.51
2019-03-13T06:10:47.817Z,8.45
2019-03-13T06:11:48.104Z,8.46
2019-03-13T06:12:47.871Z,8.49
2019-03-13T06:13:49.955Z,8.49
2019-03-13T06:14:48.153Z,8.49
2019-03-13T06:15:48.175Z,8.49
2019-03-13T06:16:47.941Z,8.48
2019-03-13T06:17:48.465Z,8.46
2019-03-13T06:18:48.221Z,8.48
2019-03-13T06:19:47.981Z,8.41
2019-03-13T06:20:48.259Z,8.45
2019-03-13T06:21:48.273Z,8.53
2019-03-13T06:22:48.291Z,8.48
2019-03-13T06:23:50.238Z,8.51
2019-03-13T06:24:48.329Z,8.46
2019-03-13T06:25:48.104Z,8.49
2019-03-13T06:26:48.385Z,8.44
2019-03-13T06:27:51.226Z,8.52
2019-03-13T06:28:48.136Z,8.51
2019-03-13T06:29:48.415Z,8.46
2019-03-13T06:30:48.705Z,8.46
2019-03-13T06:31:48.723Z,8.53
2019-03-13T06:32:48.753Z,8.49
2019-03-13T06:33:48.226Z,8.49
2019-03-13T06:34:48.506Z,8.44
2019-03-13T06:35:48.786Z,8.51
2019-03-13T06:36:48.281Z,8.44
2019-03-13T06:37:48.825Z,8.49
2019-03-13T06:38:48.317Z,8.52
2019-03-13T06:39:48.595Z,8.46
2019-03-13T06:40:48.872Z,8.42
2019-03-13T06:41:48.635Z,8.42
2019-03-13T06:42:48.648Z,8.58
2019-03-13T06:43:48.929Z,8.49
2019-03-13T06:44:48.679Z,8.49
2019-03-13T06:45:48.708Z,8.49
2019-03-13T06:46:48.995Z,8.42
2019-03-13T06:47:48.734Z,8.52
2019-03-13T06:48:48.755Z,8.48
2019-03-13T06:49:48.770Z,8.45
2019-03-13T06:50:48.793Z,8.45
2019-03-13T06:51:48.806Z,8.46
2019-03-13T06:52:48.561Z,8.46
2019-03-13T06:53:48.580Z,8.41
2019-03-13T06:54:48.857Z,8.48
2019-03-13T06:55:48.884Z,8.45
2019-03-13T06:56:48.897Z,8.48
2019-03-13T06:57:48.646Z,8.6
2019-03-13T06:58:49.210Z,8.61
2019-03-13T06:59:48.945Z,8.48
2019-03-13T07:00:48.702Z,8.46
2019-03-13T07:01:48.716Z,8.48
2019-03-13T07:02:48.997Z,8.46
2019-03-13T07:03:49.015Z,8.49
2019-03-13T07:04:48.769Z,8.55
2019-03-13T07:05:48.798Z,8.46
2019-03-13T07:06:49.066Z,8.48
2019-03-13T07:07:49.084Z,8.51
2019-03-13T07:08:49.104Z,8.6
2019-03-13T07:09:49.126Z,8.51
2019-03-13T07:10:49.136Z,8.49
2019-03-13T07:11:48.889Z,8.52
2019-03-13T07:12:49.435Z,8.42
2019-03-13T07:13:49.197Z,8.6
2019-03-13T07:14:49.274Z,8.61
2019-03-13T07:15:49.229Z,8.56
2019-03-13T07:16:49.243Z,8.64
2019-03-13T07:17:49.257Z,8.52
2019-03-13T07:18:49.023Z,8.55
2019-03-13T07:19:49.309Z,8.49
2019-03-13T07:20:49.313Z,8.6
2019-03-13T07:21:49.072Z,8.53
2019-03-13T07:22:49.348Z,8.55
2019-03-13T07:23:49.362Z,8.58
2019-03-13T07:24:49.418Z,8.6
2019-03-13T07:25:49.138Z,8.6
2019-03-13T07:26:51.367Z,8.61
2019-03-13T07:27:49.436Z,8.61
2019-03-13T07:28:52.211Z,8.53
2019-03-13T07:29:49.206Z,8.6
2019-03-13T07:30:49.502Z,8.51
2019-03-13T07:31:49.505Z,8.63
2019-03-13T07:32:49.529Z,8.52
2019-03-13T07:33:49.541Z,8.49
2019-03-13T07:34:49.566Z,8.64
2019-03-13T07:35:49.582Z,8.61
2019-03-13T07:36:49.858Z,8.56
2019-03-13T07:37:49.618Z,8.55
2019-03-13T07:38:49.629Z,8.56
2019-03-13T07:39:49.651Z,8.61
2019-03-13T07:40:49.665Z,8.61
2019-03-13T07:41:49.951Z,8.6
2019-03-13T07:42:49.698Z,8.52
2019-03-13T07:43:49.460Z,8.53
2019-03-13T07:44:49.733Z,8.58
2019-03-13T07:45:49.497Z,8.63
2019-03-13T07:46:50.034Z,8.63
2019-03-13T07:47:49.789Z,8.61
2019-03-13T07:48:50.071Z,8.6
2019-03-13T07:49:49.561Z,8.63
2019-03-13T07:50:49.670Z,8.61
2019-03-13T07:51:50.122Z,8.67
2019-03-13T07:52:50.138Z,8.66
2019-03-13T07:53:50.166Z,8.66
2019-03-13T07:54:49.652Z,8.66
2019-03-13T07:55:49.933Z,8.71
2019-03-13T07:56:50.213Z,8.73
2019-03-13T07:57:49.968Z,8.74
2019-03-13T07:58:49.987Z,8.71
2019-03-13T07:59:50.262Z,8.7
2019-03-13T08:00:50.021Z,8.7
2019-03-13T08:01:49.772Z,8.69
2019-03-13T08:02:50.327Z,8.71
2019-03-13T08:03:50.072Z,8.71
2019-03-13T08:04:50.088Z,8.73
2019-03-13T08:05:49.857Z,8.73
2019-03-13T08:06:50.125Z,8.7
2019-03-13T08:07:49.878Z,8.74
2019-03-13T08:08:49.905Z,8.79
2019-03-13T08:09:50.179Z,8.73
2019-03-13T08:10:49.932Z,8.74
2019-03-13T08:11:50.483Z,8.74
2019-03-13T08:12:50.234Z,8.71
2019-03-13T08:13:50.249Z,8.73
2019-03-13T08:14:50.271Z,8.71
2019-03-13T08:15:50.359Z,8.76
2019-03-13T08:16:50.302Z,8.76
2019-03-13T08:17:50.061Z,8.79
2019-03-13T08:18:50.340Z,8.73
2019-03-13T08:19:50.097Z,8.78
2019-03-13T08:20:50.383Z,8.7
2019-03-13T08:21:50.128Z,8.84
2019-03-13T08:22:50.671Z,8.78
2019-03-13T08:23:50.164Z,8.76
2019-03-13T08:24:50.708Z,8.74
2019-03-13T08:25:50.272Z,8.74
2019-03-13T08:26:50.481Z,8.79
2019-03-13T08:27:50.236Z,8.74
2019-03-13T08:28:50.512Z,8.74
2019-03-13T08:29:50.535Z,8.79
2019-03-13T08:30:50.284Z,8.78
2019-03-13T08:31:50.578Z,8.82
2019-03-13T08:32:50.585Z,8.78
2019-03-13T08:33:50.348Z,8.82
2019-03-13T08:34:50.360Z,8.82
2019-03-13T08:35:50.642Z,8.74
2019-03-13T08:36:50.660Z,8.74
2019-03-13T08:37:50.424Z,8.89
2019-03-13T08:38:50.695Z,8.82
2019-03-13T08:39:50.452Z,8.82
2019-03-13T08:40:50.994Z,8.74
2019-03-13T08:41:50.486Z,8.74
2019-03-13T08:42:50.767Z,8.73
2019-03-13T08:43:51.047Z,8.73
2019-03-13T08:44:50.820Z,8.84
2019-03-13T08:45:50.566Z,8.73
2019-03-13T08:46:50.836Z,8.85
2019-03-13T08:47:50.590Z,8.74
2019-03-13T08:48:51.138Z,8.87
2019-03-13T08:49:50.898Z,8.85
2019-03-13T08:50:50.657Z,8.81
2019-03-13T08:51:50.937Z,8.78
2019-03-13T08:52:50.942Z,8.94
2019-03-13T08:53:50.703Z,8.89
2019-03-13T08:54:50.717Z,8.94
2019-03-13T08:55:50.998Z,8.89
2019-03-13T08:56:50.753Z,8.88
2019-03-13T08:57:50.776Z,8.94
2019-03-13T08:58:50.805Z,8.91
2019-03-13T08:59:51.073Z,8.91
2019-03-13T09:00:51.096Z,8.95
2019-03-13T09:01:51.103Z,8.94
2019-03-13T09:02:51.120Z,8.91
2019-03-13T09:03:51.148Z,8.92
2019-03-13T09:04:50.895Z,8.92
2019-03-13T09:05:51.014Z,8.94
2019-03-13T09:06:51.199Z,8.91
2019-03-13T09:07:51.475Z,8.92
2019-03-13T09:08:50.964Z,8.94
2019-03-13T09:09:51.249Z,8.85
2019-03-13T09:10:51.012Z,8.94
2019-03-13T09:11:51.021Z,8.89
2019-03-13T09:12:51.037Z,8.94
2019-03-13T09:13:51.055Z,9
2019-03-13T09:14:51.605Z,8.92
2019-03-13T09:15:51.172Z,8.99
2019-03-13T09:16:51.367Z,8.89
2019-03-13T09:17:51.130Z,9
2019-03-13T09:18:51.407Z,8.89
2019-03-13T09:19:51.690Z,8.95
2019-03-13T09:20:51.456Z,9
2019-03-13T09:21:51.458Z,8.99
2019-03-13T09:22:51.484Z,8.99
2019-03-13T09:23:51.232Z,9
2019-03-13T09:24:51.778Z,9.11
2019-03-13T09:25:51.883Z,9.04
2019-03-13T09:26:51.822Z,9.11
2019-03-13T09:27:51.573Z,9.18
2019-03-13T09:28:51.583Z,9.19
2019-03-13T09:29:51.341Z,9.26
2019-03-13T09:30:51.674Z,9.18
2019-03-13T09:31:51.656Z,9.29
2019-03-13T09:32:51.661Z,9.21
2019-03-13T09:33:51.676Z,9.28
2019-03-13T09:34:51.434Z,9.29
2019-03-13T09:35:51.709Z,9.23
2019-03-13T09:36:51.729Z,9.25
2019-03-13T09:37:51.748Z,9.29
2019-03-13T09:38:51.768Z,9.32
2019-03-13T09:39:52.071Z,9.39
2019-03-13T09:40:51.825Z,9.32
2019-03-13T09:41:51.825Z,9.37
2019-03-13T09:42:52.106Z,9.43
2019-03-13T09:43:52.125Z,9.39
2019-03-13T09:44:51.971Z,9.44
2019-03-13T09:45:52.165Z,9.46
2019-03-13T09:46:51.657Z,9.43
2019-03-13T09:47:51.672Z,9.43
2019-03-13T09:48:51.978Z,9.48
2019-03-13T09:49:51.705Z,9.5
2019-03-13T09:50:51.731Z,9.5
2019-03-13T09:51:51.743Z,9.58
2019-03-13T09:52:51.771Z,9.61
2019-03-13T09:53:52.040Z,9.54
2019-03-13T09:54:52.064Z,9.54
2019-03-13T09:55:52.078Z,9.56
2019-03-13T09:56:51.840Z,9.64
2019-03-13T09:57:52.113Z,9.65
2019-03-13T09:58:52.133Z,9.64
2019-03-13T09:59:52.160Z,9.69
2019-03-13T10:00:52.433Z,9.73
2019-03-13T10:01:51.930Z,9.69
2019-03-13T10:02:51.944Z,9.68
2019-03-13T10:03:51.964Z,9.73
2019-03-13T10:04:52.507Z,9.72
2019-03-13T10:05:52.530Z,9.68
2019-03-13T10:06:52.293Z,9.69
2019-03-13T10:07:52.396Z,9.68
2019-03-13T10:08:52.317Z,9.66
2019-03-13T10:09:52.071Z,9.69
2019-03-13T10:10:52.355Z,9.79
2019-03-13T10:11:52.372Z,9.68
2019-03-13T10:12:52.389Z,9.8
2019-03-13T10:13:52.145Z,9.66
2019-03-13T10:14:52.432Z,9.77
2019-03-13T10:15:52.713Z,9.76
2019-03-13T10:16:52.486Z,9.73
2019-03-13T10:17:52.748Z,9.76
2019-03-13T10:18:52.244Z,9.76
2019-03-13T10:19:52.264Z,9.77
2019-03-13T10:20:52.544Z,9.83
2019-03-13T10:21:52.557Z,9.74
2019-03-13T10:22:52.580Z,9.82
2019-03-13T10:23:52.605Z,9.76
2019-03-13T10:24:52.620Z,9.73
2019-03-13T10:25:53.715Z,9.79
2019-03-13T10:26:52.391Z,9.76
2019-03-13T10:27:53.023Z,9.91
2019-03-13T10:28:52.441Z,9.86
2019-03-13T10:29:52.443Z,9.83
2019-03-13T10:30:52.733Z,9.8
2019-03-13T10:31:52.751Z,9.97
2019-03-13T10:32:52.865Z,10.04
2019-03-13T10:33:53.048Z,10.04
2019-03-13T10:34:53.083Z,10.04
2019-03-13T10:35:53.090Z,10.12
2019-03-13T10:36:55.155Z,10.12
2019-03-13T10:37:53.140Z,10.09
2019-03-13T10:38:52.611Z,10.01
2019-03-13T10:39:52.896Z,10.15
2019-03-13T10:40:52.934Z,10.19
2019-03-13T10:41:53.197Z,10.13
2019-03-13T10:42:52.948Z,10.12
2019-03-13T10:43:53.240Z,10.22
2019-03-13T10:44:52.722Z,10.25
2019-03-13T10:45:53.007Z,10.23
2019-03-13T10:46:53.033Z,10.28
2019-03-13T10:47:52.781Z,10.31
2019-03-13T10:48:55.868Z,10.31
2019-03-13T10:49:53.347Z,10.34
2019-03-13T10:50:52.842Z,10.35
2019-03-13T10:51:53.117Z,10.3
2019-03-13T10:52:53.137Z,10.23
2019-03-13T10:53:52.906Z,10.33
2019-03-13T10:54:53.176Z,10.31
2019-03-13T10:55:55.088Z,10.26
2019-03-13T10:56:52.950Z,10.25
2019-03-13T10:57:53.229Z,10.31
2019-03-13T10:58:52.986Z,10.23
2019-03-13T10:59:53.536Z,10.26
2019-03-13T11:00:53.025Z,10.31
2019-03-13T11:01:55.886Z,10.15
2019-03-13T11:02:53.062Z,10.13
2019-03-13T11:03:53.085Z,10.15
2019-03-13T11:04:53.404Z,10.16
2019-03-13T11:05:53.142Z,10.19
2019-03-13T11:07:00.124Z,10.13
2019-03-13T11:07:53.420Z,10.1
2019-03-13T11:08:53.175Z,10.13
2019-03-13T11:09:53.460Z,10.07
2019-03-13T11:10:53.216Z,10.17
2019-03-13T11:11:53.754Z,10.05
2019-03-13T11:12:53.520Z,10.07
2019-03-13T11:13:53.548Z,10.09
2019-03-13T11:14:53.548Z,10.1
2019-03-13T11:15:53.316Z,10.16
2019-03-13T11:16:53.863Z,10.02
2019-03-13T11:17:53.607Z,10.07
2019-03-13T11:18:53.889Z,10.07
2019-03-13T11:19:53.646Z,10.1
2019-03-13T11:20:53.401Z,10.13
2019-03-13T11:21:53.419Z,10.07
2019-03-13T11:22:53.701Z,10.04
2019-03-13T11:23:53.987Z,10.2
2019-03-13T11:24:53.477Z,10.13
2019-03-13T11:25:53.757Z,10.2
2019-03-13T11:26:53.510Z,10.25
2019-03-13T11:27:53.532Z,10.2
2019-03-13T11:28:54.074Z,10.2
2019-03-13T11:29:53.831Z,10.22
2019-03-13T11:30:54.122Z,10.09
2019-03-13T11:31:53.871Z,10.2
2019-03-13T11:32:53.887Z,10.13
2019-03-13T11:33:53.642Z,10.12
2019-03-13T11:34:53.663Z,10.04
2019-03-13T11:35:54.207Z,10.13
2019-03-13T11:36:53.963Z,10.02
2019-03-13T11:37:53.995Z,10.07
2019-03-13T11:38:53.740Z,10.07
2019-03-13T11:39:54.020Z,10.1
2019-03-13T11:40:53.777Z,10.07
2019-03-13T11:41:54.319Z,10.07
2019-03-13T11:42:54.077Z,10.07
2019-03-13T11:43:54.092Z,10.02
2019-03-13T11:44:54.114Z,10.04
2019-03-13T11:45:54.133Z,10.07
2019-03-13T11:46:54.419Z,10.07
2019-03-13T11:47:54.430Z,10.07
2019-03-13T11:48:53.927Z,10.12
2019-03-13T11:49:54.206Z,10.2
2019-03-13T11:50:54.229Z,10.13
2019-03-13T11:51:54.251Z,10.2
2019-03-13T11:52:54.314Z,10.25
2019-03-13T11:53:54.277Z,10.26
2019-03-13T11:54:54.041Z,10.2
2019-03-13T11:55:54.323Z,10.2
2019-03-13T11:56:54.338Z,10.28
2019-03-13T11:57:54.354Z,10.31
2019-03-13T11:58:54.379Z,10.34
2019-03-13T11:59:54.395Z,10.38
2019-03-13T12:00:54.425Z,10.4
2019-03-13T12:01:54.696Z,10.44
2019-03-13T12:02:54.454Z,10.3
2019-03-13T12:03:54.227Z,10.37
2019-03-13T12:04:54.486Z,10.34
2019-03-13T12:05:54.244Z,10.34
2019-03-13T12:06:54.527Z,10.41
2019-03-13T12:07:54.546Z,10.33
2019-03-13T12:08:54.572Z,10.33
2019-03-13T12:09:54.321Z,10.38
2019-03-13T12:10:54.612Z,10.44
2019-03-13T12:11:54.642Z,10.41
2019-03-13T12:12:54.958Z,10.31
2019-03-13T12:13:54.400Z,10.41
2019-03-13T12:14:54.415Z,10.46
2019-03-13T12:15:54.693Z,10.4
2019-03-13T12:16:54.716Z,10.35
2019-03-13T12:17:54.735Z,10.42
2019-03-13T12:18:54.501Z,10.34
2019-03-13T12:19:55.033Z,10.46
2019-03-13T12:20:54.799Z,10.38
2019-03-13T12:21:54.813Z,10.4
2019-03-13T12:22:54.577Z,10.51
2019-03-13T12:23:55.112Z,10.38
2019-03-13T12:24:54.602Z,10.38
2019-03-13T12:25:54.629Z,10.46
2019-03-13T12:26:54.906Z,10.44
2019-03-13T12:27:54.924Z,10.46
2019-03-13T12:28:54.937Z,10.46
2019-03-13T12:29:55.278Z,10.41
2019-03-13T12:30:54.717Z,10.34
2019-03-13T12:31:54.749Z,10.4
2019-03-13T12:32:55.019Z,10.48
2019-03-13T12:33:55.039Z,10.41
2019-03-13T12:34:55.058Z,10.37
2019-03-13T12:35:54.810Z,10.38
2019-03-13T12:36:54.827Z,10.33
2019-03-13T12:37:55.167Z,10.38
2019-03-13T12:38:54.865Z,10.31
2019-03-13T12:39:55.145Z,10.33
2019-03-13T12:40:55.167Z,10.46
2019-03-13T12:41:54.925Z,10.34
2019-03-13T12:42:55.204Z,10.34
2019-03-13T12:43:56.219Z,10.28
2019-03-13T12:44:55.245Z,10.35
2019-03-13T12:45:55.000Z,10.28
2019-03-13T12:46:55.541Z,10.31
2019-03-13T12:47:55.562Z,10.28
2019-03-13T12:48:55.581Z,10.33
2019-03-13T12:49:55.082Z,10.41
2019-03-13T12:50:55.376Z,10.33
2019-03-13T12:51:55.378Z,10.23
2019-03-13T12:52:55.147Z,10.25
2019-03-13T12:53:55.152Z,10.33
2019-03-13T12:54:55.696Z,10.34
2019-03-13T12:55:55.451Z,10.26
2019-03-13T12:56:55.472Z,10.3
2019-03-13T12:57:55.487Z,10.28
2019-03-13T12:58:55.769Z,10.25
2019-03-13T12:59:55.786Z,10.28
2019-03-13T13:00:55.279Z,10.28
2019-03-13T13:01:55.302Z,10.17
2019-03-13T13:02:57.414Z,10.19
2019-03-13T13:03:55.597Z,10.23
2019-03-13T13:04:55.944Z,10.17
2019-03-13T13:05:55.634Z,10.13
2019-03-13T13:06:55.669Z,10.15
2019-03-13T13:07:55.938Z,10.16
2019-03-13T13:08:55.728Z,10.13
2019-03-13T13:09:56.008Z,10.1
2019-03-13T13:10:55.468Z,10.16
2019-03-13T13:11:55.747Z,10.16
2019-03-13T13:12:55.802Z,10.2
2019-03-13T13:13:55.532Z,10.17
2019-03-13T13:14:57.276Z,10.15
2019-03-13T13:15:55.615Z,10.15